Roscoe, Missouri
Current Conditions -  °F | °C
As of 11:55 AM on Friday 21 Nov 2014 (Local Time) from KGLY Reporting Station
Overcast Overcast  
Wind Chill: 39°   Ceiling: 1600
Heat Index: 45°   Visibility: 10mi
Dew Point: 30°   Wind: 10mph
Humidity: 57%   Direction: 120°ESE
Pressure: 30.22"   Gusts: 17mph
Location:  37.97°N, 93.81°W
Report Text: KGLY 211755Z AUTO 12009G15KT 10SM OVC016 07/M01 A3022 RMK AO2
Loading
Personal Weather Stations






























Interactive Weather Map New forecast layout! Learn more

10-Day Weather Forecast

Advertisements
Track Severe Weather on mobile